createdAt,value
2023-03-15T00:00:57.392Z,4.57143
2023-03-15T00:01:57.427Z,4.57143
2023-03-15T00:02:57.458Z,4.57143
2023-03-15T00:03:57.560Z,4.57143
2023-03-15T00:04:57.537Z,4.57143
2023-03-15T00:05:57.576Z,4.57143
2023-03-15T00:06:57.617Z,4.57143
2023-03-15T00:07:57.656Z,4.57143
2023-03-15T00:08:57.703Z,4.57143
2023-03-15T00:09:57.743Z,4.5
2023-03-15T00:10:57.779Z,4.57143
2023-03-15T00:11:57.810Z,4.57143
2023-03-15T00:12:57.844Z,4.57143
2023-03-15T00:13:57.864Z,4.57143
2023-03-15T00:14:57.905Z,4.57143
2023-03-15T00:15:58.029Z,4.57143
2023-03-15T00:16:57.990Z,4.57143
2023-03-15T00:17:58.058Z,4.57143
2023-03-15T00:18:58.061Z,4.57143
2023-03-15T00:19:58.107Z,4.57143
2023-03-15T00:20:58.140Z,4.5
2023-03-15T00:21:58.179Z,4.5
2023-03-15T00:22:58.225Z,4.5
2023-03-15T00:23:58.271Z,4.5
2023-03-15T00:24:58.295Z,4.5
2023-03-15T00:25:58.344Z,4.5
2023-03-15T00:26:58.364Z,4.5
2023-03-15T00:27:58.398Z,4.5
2023-03-15T00:28:58.442Z,4.5
2023-03-15T00:29:58.482Z,4.42857
2023-03-15T00:30:58.526Z,4.42857
2023-03-15T00:31:58.549Z,4.42857
2023-03-15T00:32:58.613Z,4.42857
2023-03-15T00:33:58.624Z,4.42857
2023-03-15T00:34:58.666Z,4.42857
2023-03-15T00:35:58.749Z,4.42857
2023-03-15T00:36:58.734Z,4.42857
2023-03-15T00:37:58.773Z,4.42857
2023-03-15T00:38:58.838Z,4.42857
2023-03-15T00:39:58.847Z,4.42857
2023-03-15T00:40:58.879Z,4.42857
2023-03-15T00:41:58.921Z,4.42857
2023-03-15T00:42:58.976Z,4.42857
2023-03-15T00:43:59.013Z,4.42857
2023-03-15T00:44:59.036Z,4.42857
2023-03-15T00:45:59.076Z,4.42857
2023-03-15T00:46:59.116Z,4.42857
2023-03-15T00:47:59.149Z,4.42857
2023-03-15T00:48:59.176Z,4.42857
2023-03-15T00:49:59.218Z,4.42857
2023-03-15T00:50:59.255Z,4.42857
2023-03-15T00:51:59.297Z,4.42857
2023-03-15T00:52:59.336Z,4.42857
2023-03-15T00:53:59.366Z,4.42857
2023-03-15T00:54:59.405Z,4.42857
2023-03-15T00:55:59.441Z,4.42857
2023-03-15T00:56:59.483Z,4.42857
2023-03-15T00:57:59.512Z,4.42857
2023-03-15T00:58:59.552Z,4.35714
2023-03-15T00:59:59.589Z,4.35714
2023-03-15T01:00:59.623Z,4.35714
2023-03-15T01:01:59.742Z,4.35714
2023-03-15T01:02:59.708Z,4.35714
2023-03-15T01:03:59.760Z,4.42857
2023-03-15T01:04:59.777Z,4.35714
2023-03-15T01:05:59.808Z,4.35714
2023-03-15T01:06:59.862Z,4.35714
2023-03-15T01:07:59.889Z,4.35714
2023-03-15T01:08:59.916Z,4.35714
2023-03-15T01:09:59.956Z,4.35714
2023-03-15T01:11:00.004Z,4.35714
2023-03-15T01:12:00.029Z,4.35714
2023-03-15T01:13:00.084Z,4.35714
2023-03-15T01:14:00.138Z,4.35714
2023-03-15T01:15:00.172Z,4.35714
2023-03-15T01:16:00.244Z,4.35714
2023-03-15T01:17:00.213Z,4.35714
2023-03-15T01:18:00.241Z,4.28571
2023-03-15T01:19:00.273Z,4.28571
2023-03-15T01:20:00.312Z,4.28571
2023-03-15T01:21:00.349Z,4.28571
2023-03-15T01:22:00.382Z,4.28571
2023-03-15T01:23:00.415Z,4.28571
2023-03-15T01:24:00.460Z,4.28571
2023-03-15T01:25:00.496Z,4.28571
2023-03-15T01:26:00.525Z,4.28571
2023-03-15T01:27:00.581Z,4.28571
2023-03-15T01:28:00.604Z,4.28571
2023-03-15T01:29:00.647Z,4.28571
2023-03-15T01:30:00.674Z,4.28571
2023-03-15T01:31:00.858Z,4.28571
2023-03-15T01:32:00.763Z,4.28571
2023-03-15T01:33:00.896Z,4.28571
2023-03-15T01:34:00.857Z,4.21429
2023-03-15T01:35:00.872Z,4.21429
2023-03-15T01:36:00.962Z,4.21429
2023-03-15T01:37:00.997Z,4.21429
2023-03-15T01:38:00.988Z,4.21429
2023-03-15T01:39:01.022Z,4.21429
2023-03-15T01:40:01.088Z,4.21429
2023-03-15T01:41:01.094Z,4.21429
2023-03-15T01:42:01.123Z,4.21429
2023-03-15T01:43:01.157Z,4.21429
2023-03-15T01:44:01.201Z,4.21429
2023-03-15T01:45:01.246Z,4.14286
2023-03-15T01:46:01.263Z,4.14286
2023-03-15T01:47:01.361Z,4.14286
2023-03-15T01:48:01.337Z,4.14286
2023-03-15T01:49:01.375Z,4.14286
2023-03-15T01:50:01.411Z,4.14286
2023-03-15T01:51:01.438Z,4.14286
2023-03-15T01:52:01.489Z,4.14286
2023-03-15T01:53:01.514Z,4.14286
2023-03-15T01:54:01.544Z,4.14286
2023-03-15T01:55:01.586Z,4.14286
2023-03-15T01:56:01.631Z,4.14286
2023-03-15T01:57:01.653Z,4.14286
2023-03-15T01:58:01.692Z,4.07143
2023-03-15T01:59:01.732Z,4.07143
2023-03-15T02:00:01.768Z,4.07143
2023-03-15T02:01:01.853Z,4.07143
2023-03-15T02:02:01.935Z,4.07143
2023-03-15T02:03:01.883Z,4.07143
2023-03-15T02:04:01.929Z,4.07143
2023-03-15T02:05:01.947Z,4
2023-03-15T02:06:01.991Z,4
2023-03-15T02:07:02.029Z,4
2023-03-15T02:08:02.064Z,4
2023-03-15T02:09:02.097Z,4
2023-03-15T02:10:02.134Z,4
2023-03-15T02:11:02.162Z,4
2023-03-15T02:12:02.205Z,4
2023-03-15T02:13:02.230Z,4
2023-03-15T02:14:02.268Z,4
2023-03-15T02:15:02.315Z,4
2023-03-15T02:16:02.391Z,4
2023-03-15T02:17:02.373Z,4
2023-03-15T02:18:02.419Z,4
2023-03-15T02:19:02.452Z,4
2023-03-15T02:20:02.495Z,3.92857
2023-03-15T02:21:02.536Z,3.92857
2023-03-15T02:22:02.577Z,3.92857
2023-03-15T02:23:02.632Z,3.92857
2023-03-15T02:24:02.643Z,3.92857
2023-03-15T02:25:02.693Z,3.92857
2023-03-15T02:26:02.712Z,3.92857
2023-03-15T02:27:02.792Z,3.92857
2023-03-15T02:28:02.787Z,3.92857
2023-03-15T02:29:02.822Z,3.92857
2023-03-15T02:30:02.869Z,3.85714
2023-03-15T02:31:02.916Z,3.85714
2023-03-15T02:32:02.974Z,3.85714
2023-03-15T02:33:02.983Z,3.85714
2023-03-15T02:34:03.016Z,3.85714
2023-03-15T02:35:03.055Z,3.85714
2023-03-15T02:36:03.112Z,3.85714
2023-03-15T02:37:03.122Z,3.85714
2023-03-15T02:38:03.162Z,3.85714
2023-03-15T02:39:03.191Z,3.85714
2023-03-15T02:40:03.230Z,3.85714
2023-03-15T02:41:03.263Z,3.85714
2023-03-15T02:42:03.306Z,3.78571
2023-03-15T02:43:03.342Z,3.78571
2023-03-15T02:44:03.359Z,3.78571
2023-03-15T02:45:03.407Z,3.78571
2023-03-15T02:46:03.522Z,3.78571
2023-03-15T02:47:03.495Z,3.78571
2023-03-15T02:48:03.514Z,3.78571
2023-03-15T02:49:03.553Z,3.78571
2023-03-15T02:50:03.615Z,3.78571
2023-03-15T02:51:03.627Z,3.78571
2023-03-15T02:52:03.669Z,3.78571
2023-03-15T02:53:03.704Z,3.78571
2023-03-15T02:54:03.756Z,3.78571
2023-03-15T02:55:03.775Z,3.78571
2023-03-15T02:56:03.830Z,3.78571
2023-03-15T02:57:03.865Z,3.78571
2023-03-15T02:58:03.892Z,3.78571
2023-03-15T02:59:03.933Z,3.78571
2023-03-15T03:00:03.977Z,3.78571
2023-03-15T03:01:04.048Z,3.85714
2023-03-15T03:02:04.078Z,3.85714
2023-03-15T03:03:04.170Z,3.85714
2023-03-15T03:04:04.192Z,3.85714
2023-03-15T03:05:04.196Z,3.92857
2023-03-15T03:06:04.204Z,3.92857
2023-03-15T03:07:04.235Z,4
2023-03-15T03:08:04.283Z,4
2023-03-15T03:09:04.314Z,4
2023-03-15T03:10:04.338Z,4
2023-03-15T03:11:04.360Z,4
2023-03-15T03:12:04.414Z,4
2023-03-15T03:13:04.443Z,4
2023-03-15T03:14:04.483Z,4
2023-03-15T03:15:04.508Z,4
2023-03-15T03:16:04.545Z,4
2023-03-15T03:17:04.582Z,4
2023-03-15T03:18:04.617Z,4
2023-03-15T03:19:04.640Z,4
2023-03-15T03:20:04.675Z,4
2023-03-15T03:21:04.716Z,4
2023-03-15T03:22:04.753Z,4
2023-03-15T03:23:04.791Z,4
2023-03-15T03:24:04.820Z,4
2023-03-15T03:25:04.867Z,3.92857
2023-03-15T03:26:04.897Z,3.92857
2023-03-15T03:27:04.981Z,3.92857
2023-03-15T03:28:04.968Z,3.92857
2023-03-15T03:29:05.016Z,3.92857
2023-03-15T03:30:05.054Z,3.92857
2023-03-15T03:31:05.156Z,3.92857
2023-03-15T03:32:05.118Z,3.85714
2023-03-15T03:33:05.143Z,3.85714
2023-03-15T03:34:05.184Z,3.85714
2023-03-15T03:35:05.221Z,3.85714
2023-03-15T03:36:05.364Z,3.85714
2023-03-15T03:37:05.307Z,3.85714
2023-03-15T03:38:05.331Z,3.85714
2023-03-15T03:39:05.380Z,3.85714
2023-03-15T03:40:05.412Z,3.78571
2023-03-15T03:41:05.448Z,3.78571
2023-03-15T03:42:05.482Z,3.78571
2023-03-15T03:43:05.527Z,3.78571
2023-03-15T03:44:05.577Z,3.78571
2023-03-15T03:45:05.596Z,3.78571
2023-03-15T03:46:05.667Z,3.78571
2023-03-15T03:47:05.680Z,3.78571
2023-03-15T03:48:05.715Z,3.78571
2023-03-15T03:49:05.761Z,3.78571
2023-03-15T03:50:05.779Z,3.78571
2023-03-15T03:51:05.811Z,3.78571
2023-03-15T03:52:05.853Z,3.78571
2023-03-15T03:53:05.880Z,3.78571
2023-03-15T03:54:05.926Z,3.71429
2023-03-15T03:55:05.967Z,3.71429
2023-03-15T03:56:05.997Z,3.71429
2023-03-15T03:57:06.040Z,3.71429
2023-03-15T03:58:06.089Z,3.71429
2023-03-15T03:59:06.127Z,3.71429
2023-03-15T04:00:06.147Z,3.71429
2023-03-15T04:01:06.186Z,3.71429
2023-03-15T04:02:06.235Z,3.71429
2023-03-15T04:03:06.259Z,3.71429
2023-03-15T04:04:06.290Z,3.71429
2023-03-15T04:05:06.324Z,3.71429
2023-03-15T04:06:06.372Z,3.71429
2023-03-15T04:07:06.387Z,3.71429
2023-03-15T04:08:06.435Z,3.71429
2023-03-15T04:09:06.468Z,3.71429
2023-03-15T04:10:06.518Z,3.71429
2023-03-15T04:11:06.542Z,3.64286
2023-03-15T04:12:07.650Z,3.71429
2023-03-15T04:13:06.614Z,3.64286
2023-03-15T04:14:06.638Z,3.64286
2023-03-15T04:15:06.689Z,3.64286
2023-03-15T04:16:06.769Z,3.64286
2023-03-15T04:17:06.752Z,3.64286
2023-03-15T04:18:06.785Z,3.64286
2023-03-15T04:19:06.824Z,3.64286
2023-03-15T04:20:06.857Z,3.57143
2023-03-15T04:21:06.887Z,3.57143
2023-03-15T04:22:06.970Z,3.57143
2023-03-15T04:23:06.957Z,3.57143
2023-03-15T04:24:06.989Z,3.57143
2023-03-15T04:25:07.035Z,3.57143
2023-03-15T04:26:07.071Z,3.57143
2023-03-15T04:27:07.115Z,3.57143
2023-03-15T04:28:07.150Z,3.57143
2023-03-15T04:29:07.199Z,3.57143
2023-03-15T04:30:07.221Z,3.57143
2023-03-15T04:31:07.280Z,3.57143
2023-03-15T04:32:07.293Z,3.57143
2023-03-15T04:33:07.337Z,3.5
2023-03-15T04:34:07.362Z,3.5
2023-03-15T04:35:07.405Z,3.5
2023-03-15T04:37:07.483Z,3.5
2023-03-15T04:37:11.289Z,3.5
2023-03-15T04:38:07.514Z,3.5
2023-03-15T04:39:07.678Z,3.5
2023-03-15T04:40:07.582Z,3.5
2023-03-15T04:41:07.613Z,3.5
2023-03-15T04:42:07.658Z,3.5
2023-03-15T04:43:07.691Z,3.5
2023-03-15T04:44:07.722Z,3.5
2023-03-15T04:45:07.753Z,3.5
2023-03-15T04:46:07.798Z,3.42857
2023-03-15T04:47:07.894Z,3.42857
2023-03-15T04:48:07.870Z,3.5
2023-03-15T04:49:07.907Z,3.42857
2023-03-15T04:50:07.938Z,3.5
2023-03-15T04:51:07.994Z,3.42857
2023-03-15T04:52:08.020Z,3.5
2023-03-15T04:53:08.045Z,3.5
2023-03-15T04:54:08.088Z,3.5
2023-03-15T04:55:08.126Z,3.5
2023-03-15T04:56:08.151Z,3.5
2023-03-15T04:57:08.214Z,3.42857
2023-03-15T04:58:08.234Z,3.42857
2023-03-15T04:59:08.262Z,3.42857
2023-03-15T05:00:08.314Z,3.42857
2023-03-15T05:01:08.360Z,3.42857
2023-03-15T05:02:08.398Z,3.42857
2023-03-15T05:03:08.409Z,3.42857
2023-03-15T05:04:08.441Z,3.42857
2023-03-15T05:05:08.478Z,3.42857
2023-03-15T05:06:08.499Z,3.42857
2023-03-15T05:07:08.550Z,3.42857
2023-03-15T05:08:08.585Z,3.42857
2023-03-15T05:09:08.618Z,3.42857
2023-03-15T05:10:08.646Z,3.42857
2023-03-15T05:11:08.681Z,3.42857
2023-03-15T05:12:08.717Z,3.5
2023-03-15T05:13:08.743Z,3.5
2023-03-15T05:14:08.786Z,3.5
2023-03-15T05:15:08.875Z,3.5
2023-03-15T05:16:08.908Z,3.5
2023-03-15T05:17:08.892Z,3.5
2023-03-15T05:18:08.931Z,3.5
2023-03-15T05:19:08.956Z,3.57143
2023-03-15T05:20:09.008Z,3.57143
2023-03-15T05:21:09.051Z,3.57143
2023-03-15T05:22:09.067Z,3.57143
2023-03-15T05:23:09.115Z,3.64286
2023-03-15T05:24:09.154Z,3.64286
2023-03-15T05:25:09.178Z,3.64286
2023-03-15T05:26:09.220Z,3.64286
2023-03-15T05:27:09.262Z,3.71429
2023-03-15T05:28:09.293Z,3.71429
2023-03-15T05:29:09.323Z,3.71429
2023-03-15T05:30:09.361Z,3.78571
2023-03-15T05:31:09.393Z,3.78571
2023-03-15T05:32:09.432Z,3.78571
2023-03-15T05:33:09.480Z,3.78571
2023-03-15T05:34:09.510Z,3.78571
2023-03-15T05:35:09.535Z,3.78571
2023-03-15T05:36:09.577Z,3.78571
2023-03-15T05:37:09.618Z,3.78571
2023-03-15T05:38:09.640Z,3.78571
2023-03-15T05:39:09.676Z,3.78571
2023-03-15T05:40:09.717Z,3.78571
2023-03-15T05:41:09.762Z,3.78571
2023-03-15T05:42:09.807Z,3.85714
2023-03-15T05:43:09.838Z,3.85714
2023-03-15T05:44:09.878Z,3.92857
2023-03-15T05:45:09.959Z,3.92857
2023-03-15T05:46:09.979Z,4
2023-03-15T05:47:10.017Z,4
2023-03-15T05:48:10.061Z,4
2023-03-15T05:49:10.069Z,4.07143
2023-03-15T05:50:10.089Z,4.07143
2023-03-15T05:51:10.145Z,4.07143
2023-03-15T05:52:10.168Z,4.14286
2023-03-15T05:53:10.203Z,4.14286
2023-03-15T05:54:10.245Z,4.21429
2023-03-15T05:55:10.274Z,4.28571
2023-03-15T05:56:10.299Z,4.35714
2023-03-15T05:57:10.351Z,4.42857
2023-03-15T05:58:10.381Z,4.42857
2023-03-15T05:59:10.417Z,4.5
2023-03-15T06:00:10.444Z,4.57143
2023-03-15T06:01:10.483Z,4.64286
2023-03-15T06:02:10.555Z,4.64286
2023-03-15T06:03:10.639Z,4.64286
2023-03-15T06:04:10.622Z,4.71429
2023-03-15T06:05:10.627Z,4.71429
2023-03-15T06:06:10.677Z,4.71429
2023-03-15T06:07:10.690Z,4.78571
2023-03-15T06:08:10.718Z,4.78571
2023-03-15T06:09:10.765Z,4.85714
2023-03-15T06:10:10.791Z,4.85714
2023-03-15T06:11:10.829Z,4.85714
2023-03-15T06:12:10.858Z,4.85714
2023-03-15T06:13:10.910Z,4.85714
2023-03-15T06:14:10.927Z,4.92857
2023-03-15T06:15:10.958Z,4.92857
2023-03-15T06:16:11.186Z,4.92857
2023-03-15T06:17:11.025Z,4.92857
2023-03-15T06:18:11.078Z,4.92857
2023-03-15T06:19:11.105Z,4.92857
2023-03-15T06:20:11.149Z,4.92857
2023-03-15T06:21:11.183Z,4.92857
2023-03-15T06:22:11.212Z,5
2023-03-15T06:23:11.254Z,5
2023-03-15T06:24:11.295Z,5
2023-03-15T06:25:11.324Z,5
2023-03-15T06:26:11.368Z,5
2023-03-15T06:27:11.396Z,5
2023-03-15T06:28:11.448Z,5
2023-03-15T06:29:11.481Z,5
2023-03-15T06:30:11.510Z,5
2023-03-15T06:31:11.638Z,5.07143
2023-03-15T06:32:11.586Z,5.07143
2023-03-15T06:33:11.625Z,5.07143
2023-03-15T06:34:11.654Z,5.07143
2023-03-15T06:35:11.689Z,5.07143
2023-03-15T06:36:11.726Z,5.07143
2023-03-15T06:37:11.756Z,5.14286
2023-03-15T06:38:12.031Z,5.14286
2023-03-15T06:39:11.826Z,5.14286
2023-03-15T06:40:11.928Z,5.14286
2023-03-15T06:41:11.884Z,5.21429
2023-03-15T06:42:11.922Z,5.21429
2023-03-15T06:43:11.956Z,5.28571
2023-03-15T06:44:12.001Z,5.28571
2023-03-15T06:45:12.041Z,5.28571
2023-03-15T06:46:12.095Z,5.35714
2023-03-15T06:47:12.113Z,5.35714
2023-03-15T06:48:12.146Z,5.42857
2023-03-15T06:49:12.190Z,5.42857
2023-03-15T06:50:12.224Z,5.5
2023-03-15T06:51:12.260Z,5.5
2023-03-15T06:52:12.290Z,5.5
2023-03-15T06:53:12.324Z,5.57143
2023-03-15T06:54:12.364Z,5.57143
2023-03-15T06:55:12.414Z,5.64286
2023-03-15T06:56:12.435Z,5.64286
2023-03-15T06:57:12.483Z,5.64286
2023-03-15T06:58:12.513Z,5.71429
2023-03-15T06:59:12.540Z,5.71429
2023-03-15T07:00:12.589Z,5.71429
2023-03-15T07:01:12.646Z,5.71429
2023-03-15T07:02:12.688Z,5.78571
2023-03-15T07:03:12.699Z,5.78571
2023-03-15T07:04:12.732Z,5.85714
2023-03-15T07:05:12.764Z,5.85714
2023-03-15T07:06:12.864Z,5.85714
2023-03-15T07:07:12.846Z,5.85714
2023-03-15T07:08:12.881Z,5.92857
2023-03-15T07:09:12.915Z,5.92857
2023-03-15T07:10:12.953Z,6
2023-03-15T07:11:13.008Z,6
2023-03-15T07:12:13.025Z,6
2023-03-15T07:13:13.048Z,6
2023-03-15T07:14:13.091Z,6
2023-03-15T07:15:13.657Z,6
2023-03-15T07:16:13.169Z,6
2023-03-15T07:17:13.190Z,6
2023-03-15T07:18:13.227Z,6
2023-03-15T07:19:13.256Z,6.07143
2023-03-15T07:20:13.299Z,6
2023-03-15T07:21:13.317Z,6.07143
2023-03-15T07:22:13.356Z,6
2023-03-15T07:23:13.394Z,6.07143
2023-03-15T07:24:13.672Z,6.07143
2023-03-15T07:25:13.482Z,6.14286
2023-03-15T07:26:13.503Z,6.14286
2023-03-15T07:27:15.670Z,6.14286
2023-03-15T07:28:13.584Z,6.21429
2023-03-15T07:29:13.617Z,6.21429
2023-03-15T07:30:13.644Z,6.21429
2023-03-15T07:31:13.692Z,6.28571
2023-03-15T07:32:13.755Z,6.28571
2023-03-15T07:33:13.769Z,6.28571
2023-03-15T07:34:13.804Z,6.35714
2023-03-15T07:35:13.865Z,6.42857
2023-03-15T07:36:13.868Z,6.42857
2023-03-15T07:37:13.890Z,6.5
2023-03-15T07:38:13.935Z,6.5
2023-03-15T07:39:13.973Z,6.57143
2023-03-15T07:40:14.009Z,6.57143
2023-03-15T07:41:14.047Z,6.64286
2023-03-15T07:42:14.077Z,6.64286
2023-03-15T07:43:14.119Z,6.71429
2023-03-15T07:44:14.172Z,6.78571
2023-03-15T07:45:14.177Z,6.78571
2023-03-15T07:46:14.279Z,6.78571
2023-03-15T07:47:14.247Z,6.78571
2023-03-15T07:48:14.281Z,6.85714
2023-03-15T07:49:14.317Z,6.85714
2023-03-15T07:50:16.934Z,6.85714
2023-03-15T07:51:14.384Z,6.92857
2023-03-15T07:52:14.419Z,6.92857
2023-03-15T07:53:14.454Z,6.92857
2023-03-15T07:54:14.489Z,7
2023-03-15T07:55:14.521Z,7
2023-03-15T07:56:14.557Z,7.07143
2023-03-15T07:57:14.578Z,7.07143
2023-03-15T07:58:14.629Z,7.14286
2023-03-15T07:59:14.647Z,7.14286
2023-03-15T08:00:14.683Z,7.21429
2023-03-15T08:01:14.712Z,7.21429
2023-03-15T08:02:14.800Z,7.21429
2023-03-15T08:03:14.904Z,7.21429
2023-03-15T08:04:14.818Z,7.28571
2023-03-15T08:05:14.871Z,7.28571
2023-03-15T08:06:14.904Z,7.35714
2023-03-15T08:07:14.920Z,7.35714
2023-03-15T08:08:14.966Z,7.35714
2023-03-15T08:09:15.008Z,7.42857
2023-03-15T08:10:15.028Z,7.5
2023-03-15T08:11:15.067Z,7.5
2023-03-15T08:12:15.104Z,7.5
2023-03-15T08:13:15.136Z,7.5
2023-03-15T08:14:15.162Z,7.5
2023-03-15T08:15:15.195Z,7.5
2023-03-15T08:16:15.259Z,7.5
2023-03-15T08:17:15.265Z,7.5
2023-03-15T08:18:15.335Z,7.5
2023-03-15T08:19:15.326Z,7.5
2023-03-15T08:20:15.366Z,7.5
2023-03-15T08:21:15.407Z,7.5
2023-03-15T08:22:15.429Z,7.5
2023-03-15T08:23:15.463Z,7.57143
2023-03-15T08:24:15.512Z,7.57143
2023-03-15T08:25:15.544Z,7.57143
2023-03-15T08:26:15.587Z,7.64286
2023-03-15T08:27:15.625Z,7.64286
2023-03-15T08:28:15.655Z,7.57143
2023-03-15T08:29:15.699Z,7.64286
2023-03-15T08:30:15.767Z,7.64286
2023-03-15T08:31:15.800Z,7.64286
2023-03-15T08:32:15.795Z,7.64286
2023-03-15T08:33:15.831Z,7.64286
2023-03-15T08:34:15.874Z,7.64286
2023-03-15T08:35:16.185Z,7.71429
2023-03-15T08:36:16.046Z,7.71429
2023-03-15T08:37:15.995Z,7.78571
2023-03-15T08:38:16.025Z,7.78571
2023-03-15T08:39:16.087Z,7.85714
2023-03-15T08:40:16.096Z,7.85714
2023-03-15T08:41:16.129Z,7.85714
2023-03-15T08:42:16.172Z,7.92857
2023-03-15T08:43:16.206Z,7.92857
2023-03-15T08:44:16.241Z,7.92857
2023-03-15T08:45:16.269Z,7.92857
2023-03-15T08:46:16.353Z,7.92857
2023-03-15T08:47:16.339Z,7.92857
2023-03-15T08:48:16.374Z,7.92857
2023-03-15T08:49:16.424Z,7.92857
2023-03-15T08:50:16.468Z,7.92857
2023-03-15T08:51:16.479Z,7.92857
2023-03-15T08:52:18.084Z,8
2023-03-15T08:53:16.547Z,8
2023-03-15T08:54:16.586Z,8
2023-03-15T08:55:16.614Z,8
2023-03-15T08:56:16.657Z,7.92857
2023-03-15T08:57:16.706Z,7.92857
2023-03-15T08:58:16.739Z,7.92857
2023-03-15T08:59:29.133Z,7.85714
2023-03-15T09:00:16.801Z,7.85714
2023-03-15T09:01:16.838Z,7.85714
2023-03-15T09:02:16.939Z,7.85714
2023-03-15T09:03:16.917Z,7.85714
2023-03-15T09:04:16.987Z,7.85714
2023-03-15T09:05:16.984Z,7.78571
2023-03-15T09:06:17.006Z,7.78571
2023-03-15T09:07:17.044Z,7.78571
2023-03-15T09:08:17.073Z,7.78571
2023-03-15T09:09:17.114Z,7.78571
2023-03-15T09:10:17.175Z,7.71429
2023-03-15T09:11:17.187Z,7.71429
2023-03-15T09:12:17.214Z,7.71429
2023-03-15T09:13:17.252Z,7.71429
2023-03-15T09:14:17.292Z,7.71429
2023-03-15T09:15:17.353Z,7.71429
2023-03-15T09:16:17.356Z,7.71429
2023-03-15T09:17:17.409Z,7.71429
2023-03-15T09:18:17.433Z,7.78571
2023-03-15T09:19:17.469Z,7.78571
2023-03-15T09:20:17.508Z,7.78571
2023-03-15T09:21:17.533Z,7.78571
2023-03-15T09:22:34.919Z,7.78571
2023-03-15T09:23:17.622Z,7.85714
2023-03-15T09:24:17.665Z,7.85714
2023-03-15T09:25:17.683Z,7.92857
2023-03-15T09:26:17.715Z,8
2023-03-15T09:27:17.760Z,8.07143
2023-03-15T09:28:17.793Z,8.14286
2023-03-15T09:29:17.843Z,8.21429
2023-03-15T09:30:17.854Z,8.35714
2023-03-15T09:31:17.927Z,8.42857
2023-03-15T09:32:17.935Z,8.5
2023-03-15T09:33:17.962Z,8.57143
2023-03-15T09:34:17.998Z,8.57143
2023-03-15T09:35:18.028Z,8.64286
2023-03-15T09:36:18.069Z,8.71429
2023-03-15T09:37:18.095Z,8.78571
2023-03-15T09:38:18.132Z,8.78571
2023-03-15T09:39:18.164Z,8.85714
2023-03-15T09:40:18.195Z,8.85714
2023-03-15T09:41:19.874Z,8.92857
2023-03-15T09:42:26.144Z,8.92857
2023-03-15T09:43:29.910Z,8.92857
2023-03-15T09:44:28.517Z,8.85714
2023-03-15T09:45:28.574Z,8.85714
2023-03-15T09:46:28.674Z,8.85714
2023-03-15T09:47:28.635Z,8.78571
2023-03-15T09:48:29.140Z,8.71429
2023-03-15T09:49:29.173Z,8.71429
2023-03-15T09:50:29.209Z,8.71429
2023-03-15T09:51:29.254Z,8.64286
2023-03-15T09:52:29.279Z,8.64286
2023-03-15T09:53:29.320Z,8.64286
2023-03-15T09:54:29.352Z,8.64286
2023-03-15T09:55:29.399Z,8.71429
2023-03-15T09:56:29.451Z,8.71429
2023-03-15T09:57:29.463Z,8.71429
2023-03-15T09:58:29.508Z,8.64286
2023-03-15T09:59:29.555Z,8.64286
2023-03-15T10:00:29.573Z,8.57143
2023-03-15T10:01:29.721Z,8.57143
2023-03-15T10:02:29.683Z,8.57143
2023-03-15T10:03:29.729Z,8.5
2023-03-15T10:04:29.717Z,8.5
2023-03-15T10:05:29.749Z,8.5
2023-03-15T10:06:29.762Z,8.5
2023-03-15T10:07:29.821Z,8.5
2023-03-15T10:08:29.829Z,8.5
2023-03-15T10:09:29.875Z,8.5
2023-03-15T10:10:29.909Z,8.5
2023-03-15T10:11:29.944Z,8.5
2023-03-15T10:12:29.981Z,8.5
2023-03-15T10:13:30.036Z,8.57143
2023-03-15T10:14:30.057Z,8.57143
2023-03-15T10:15:30.084Z,8.64286
2023-03-15T10:16:30.189Z,8.64286
2023-03-15T10:17:30.160Z,8.64286
2023-03-15T10:18:30.180Z,8.64286
2023-03-15T10:19:30.220Z,8.64286
2023-03-15T10:20:30.268Z,8.64286
2023-03-15T10:21:30.308Z,8.71429
2023-03-15T10:22:30.340Z,8.71429
2023-03-15T10:23:30.380Z,8.78571
2023-03-15T10:24:30.410Z,8.78571
2023-03-15T10:25:30.462Z,8.78571
2023-03-15T10:26:30.487Z,8.85714
2023-03-15T10:27:30.521Z,8.85714
2023-03-15T10:28:31.329Z,8.85714
2023-03-15T10:29:30.605Z,8.92857
2023-03-15T10:30:30.627Z,9
2023-03-15T10:31:41.287Z,9
2023-03-15T10:32:30.801Z,9.14286
2023-03-15T10:33:30.718Z,9.21429
2023-03-15T10:34:30.753Z,9.35714
2023-03-15T10:35:30.795Z,9.42857
2023-03-15T10:36:30.924Z,9.5
2023-03-15T10:37:30.864Z,9.57143
2023-03-15T10:38:30.890Z,9.64286
2023-03-15T10:39:30.931Z,9.64286
2023-03-15T10:40:30.977Z,9.57143
2023-03-15T10:41:31.006Z,9.57143
2023-03-15T10:42:31.060Z,9.5
2023-03-15T10:43:31.085Z,9.5
2023-03-15T10:44:31.122Z,9.42857
2023-03-15T10:45:31.159Z,9.35714
2023-03-15T10:46:31.294Z,9.28571
2023-03-15T10:47:31.230Z,9.28571
2023-03-15T10:48:31.270Z,9.21429
2023-03-15T10:49:31.315Z,9.14286
2023-03-15T10:50:31.353Z,9.07143
2023-03-15T10:51:31.410Z,9
2023-03-15T10:52:31.422Z,9
2023-03-15T10:53:31.465Z,9
2023-03-15T10:54:31.497Z,9
2023-03-15T10:55:31.530Z,9
2023-03-15T10:56:31.613Z,9
2023-03-15T10:57:31.606Z,9
2023-03-15T10:58:31.645Z,9
2023-03-15T10:59:31.678Z,9
2023-03-15T11:00:31.737Z,9
2023-03-15T11:01:31.769Z,9
2023-03-15T11:02:31.844Z,9
2023-03-15T11:03:31.826Z,9
2023-03-15T11:04:34.293Z,9
2023-03-15T11:05:31.890Z,9
2023-03-15T11:06:31.930Z,9
2023-03-15T11:07:31.969Z,9
2023-03-15T11:08:32.006Z,8.92857
2023-03-15T11:09:32.028Z,8.92857
2023-03-15T11:10:32.063Z,8.92857
2023-03-15T11:11:32.102Z,8.85714
2023-03-15T11:12:32.139Z,8.78571
2023-03-15T11:13:32.185Z,8.78571
2023-03-15T11:14:32.221Z,8.71429
2023-03-15T11:15:32.260Z,8.64286
2023-03-15T11:16:32.353Z,8.64286
2023-03-15T11:17:32.334Z,8.64286
2023-03-15T11:18:32.366Z,8.64286
2023-03-15T11:19:32.416Z,8.64286
2023-03-15T11:20:32.445Z,8.64286
2023-03-15T11:21:32.471Z,8.64286
2023-03-15T11:22:32.511Z,8.64286
2023-03-15T11:23:32.542Z,8.64286
2023-03-15T11:24:32.651Z,8.71429
2023-03-15T11:25:32.610Z,8.71429
2023-03-15T11:26:33.228Z,8.71429
2023-03-15T11:27:32.672Z,8.78571
2023-03-15T11:28:32.720Z,8.78571
2023-03-15T11:29:32.747Z,8.85714
2023-03-15T11:30:32.781Z,8.85714
2023-03-15T11:31:32.894Z,8.92857
2023-03-15T11:32:32.901Z,8.92857
2023-03-15T11:33:32.882Z,9
2023-03-15T11:34:32.923Z,9.07143
2023-03-15T11:35:32.988Z,9.07143
2023-03-15T11:36:32.988Z,9.14286
2023-03-15T11:37:33.021Z,9.14286
2023-03-15T11:38:33.062Z,9.21429
2023-03-15T11:39:33.089Z,9.28571
2023-03-15T11:40:33.126Z,9.28571
2023-03-15T11:41:33.163Z,9.28571
2023-03-15T11:42:33.209Z,9.35714
2023-03-15T11:43:33.230Z,9.28571
2023-03-15T11:44:33.267Z,9.28571
2023-03-15T11:45:33.368Z,9.21429
2023-03-15T11:46:33.348Z,9.21429
2023-03-15T11:47:33.383Z,9.28571
2023-03-15T11:48:33.418Z,9.28571
2023-03-15T11:49:33.455Z,9.28571
2023-03-15T11:50:33.494Z,9.35714
2023-03-15T11:51:33.527Z,9.35714
2023-03-15T11:52:33.566Z,9.28571
2023-03-15T11:53:33.638Z,9.28571
2023-03-15T11:54:33.643Z,9.28571
2023-03-15T11:55:33.694Z,9.28571
2023-03-15T11:56:33.707Z,9.35714
2023-03-15T11:57:33.743Z,9.35714
2023-03-15T11:58:33.769Z,9.35714
2023-03-15T11:59:33.891Z,9.35714
2023-03-15T12:00:33.843Z,9.42857
2023-03-15T12:01:33.888Z,9.42857
2023-03-15T12:02:34.106Z,9.42857
2023-03-15T12:03:34.001Z,9.42857
2023-03-15T12:04:33.982Z,9.5
2023-03-15T12:05:34.013Z,9.42857
2023-03-15T12:06:34.045Z,9.42857
2023-03-15T12:07:34.076Z,9.35714
2023-03-15T12:08:34.109Z,9.28571
2023-03-15T12:09:34.148Z,9.28571
2023-03-15T12:10:34.189Z,9.21429
2023-03-15T12:11:34.226Z,9.21429
2023-03-15T12:12:34.278Z,9.14286
2023-03-15T12:13:34.298Z,9.14286
2023-03-15T12:14:34.349Z,9.07143
2023-03-15T12:15:34.396Z,9.07143
2023-03-15T12:16:34.446Z,9.07143
2023-03-15T12:17:37.014Z,9.07143
2023-03-15T12:18:34.481Z,9.07143
2023-03-15T12:19:34.517Z,9.14286
2023-03-15T12:20:34.561Z,9.21429
2023-03-15T12:21:34.589Z,9.28571
2023-03-15T12:22:34.629Z,9.35714
2023-03-15T12:23:34.658Z,9.5
2023-03-15T12:24:34.700Z,9.57143
2023-03-15T12:25:39.486Z,9.64286
2023-03-15T12:26:34.769Z,9.71429
2023-03-15T12:27:34.789Z,9.71429
2023-03-15T12:28:34.818Z,9.71429
2023-03-15T12:29:34.853Z,9.71429
2023-03-15T12:30:34.967Z,9.71429